Falls International Airport International Falls US
ICAO: KINL
IATA: INL
Category: Medium
Scheduled Services: Yes

Elevation: 1185 ft
TransAlt. 18000 ft.

Airport Communications:
ASOS:120
MINNEAPOLIS CNTR:120.9
PRINCETON RDO:123.6
CTAF/UNICOM:122.8

KINL Zoom In..

Runways:

(A) RW 04 length 2999 ft width 75 ft
---- / hdg 39

(B) RW 13 length 7400 ft width 150 ft
ILS 109.10 / hdg 133

(C) RW 22 length 2999 ft width 75 ft
---- / hdg 219

(D) RW 31 length 7400 ft width 150 ft
ILS 111.95 / hdg 313

Location; KINL
Day. 22 / Time. 03.55 Zulu
* Altimeter: 30.09
* Temperature: -03° c. -26.6°f.
* Wind from: 070° Speed 05 kn.
Dewpoint: -05° c.
Visibility: 2 Statute Miles.
Clouds: Overcast 300 ft.
Conditions: Mist.

KINL 220355Z AUTO 07005KT 2SM BR OVC003 M03/M05 A3009 RMK AO2 SLP213 I1009 T10331050


Wind From 070°
Speed 05 kn.

jpsM music video
CHECK IT OUT

jpsM - It Moves..

 
jpsmedia.com for Web Design  worldairports.se 2018   terms of use